createdAt,value
2023-02-11T00:00:02.123Z,2.51
2023-02-11T00:05:07.950Z,2.53
2023-02-11T00:10:11.010Z,2.54
2023-02-11T00:15:15.145Z,2.56
2023-02-11T00:20:17.980Z,2.57
2023-02-11T00:25:21.017Z,2.55
2023-02-11T00:30:25.505Z,2.59
2023-02-11T00:35:30.023Z,2.62
2023-02-11T00:40:32.769Z,2.64
2023-02-11T00:45:36.989Z,2.65
2023-02-11T00:50:39.777Z,2.67
2023-02-11T00:55:42.895Z,2.68
2023-02-11T01:00:48.100Z,2.71
2023-02-11T01:05:51.127Z,2.70
2023-02-11T01:10:58.703Z,2.73
2023-02-11T01:16:02.969Z,2.71
2023-02-11T01:21:06.116Z,2.72
2023-02-11T01:26:08.852Z,2.71
2023-02-11T01:31:13.072Z,2.71
2023-02-11T01:36:15.949Z,2.67
2023-02-11T01:41:18.684Z,2.65
2023-02-11T01:46:31.025Z,2.60
2023-02-11T01:51:39.366Z,2.56
2023-02-11T01:57:05.572Z,2.50
2023-02-11T02:02:13.271Z,2.43
2023-02-11T02:07:26.089Z,2.38
2023-02-11T02:12:28.880Z,2.34
2023-02-11T02:17:42.192Z,2.27
2023-02-11T02:23:17.923Z,2.25
2023-02-11T02:28:44.454Z,2.20
2023-02-11T02:33:57.318Z,2.14
2023-02-11T02:39:05.507Z,2.08
2023-02-11T02:44:09.360Z,2.08
2023-02-11T02:49:15.479Z,2.08
2023-02-11T02:55:06.870Z,2.08
2023-02-11T03:00:19.205Z,2.08
2023-02-11T03:05:32.824Z,2.01
2023-02-11T03:10:39.328Z,1.98
2023-02-11T03:15:44.972Z,1.94
2023-02-11T03:20:51.831Z,1.90
2023-02-11T03:26:00.441Z,1.89
2023-02-11T03:31:12.242Z,1.88
2023-02-11T03:36:21.821Z,1.82
2023-02-11T03:41:26.063Z,1.75
2023-02-11T03:46:33.122Z,1.69
2023-02-11T03:51:37.783Z,1.63
2023-02-11T03:56:49.973Z,1.55
2023-02-11T04:01:53.459Z,1.47
2023-02-11T04:06:58.322Z,1.43
2023-02-11T04:12:01.402Z,1.42
2023-02-11T04:17:04.304Z,1.42
2023-02-11T04:22:09.329Z,1.45
2023-02-11T04:27:12.156Z,1.41
2023-02-11T04:32:15.952Z,1.32
2023-02-11T04:37:20.092Z,1.27
2023-02-11T04:42:22.826Z,1.27
2023-02-11T04:47:25.638Z,1.22
2023-02-11T04:52:29.731Z,1.18
2023-02-11T04:57:32.499Z,1.20
2023-02-11T05:02:35.211Z,1.15
2023-02-11T05:07:39.388Z,1.17
2023-02-11T05:12:42.140Z,1.15
2023-02-11T05:17:44.855Z,1.16
2023-02-11T05:22:49.309Z,1.08
2023-02-11T05:27:52.245Z,1.01
2023-02-11T05:32:55.084Z,0.85
2023-02-11T05:37:59.151Z,0.65
2023-02-11T05:43:01.991Z,0.53
2023-02-11T05:48:04.909Z,0.39
2023-02-11T05:53:09.221Z,0.31
2023-02-11T05:58:12.186Z,0.23
2023-02-11T06:03:15.027Z,0.15
2023-02-11T06:08:19.341Z,0.16
2023-02-11T06:13:22.057Z,0.29
2023-02-11T06:18:24.807Z,0.30
2023-02-11T06:23:30.460Z,0.31
2023-02-11T06:28:33.809Z,0.32
2023-02-11T06:33:37.033Z,0.43
2023-02-11T06:38:41.154Z,0.58
2023-02-11T06:43:44.386Z,0.70
2023-02-11T06:48:47.252Z,0.82
2023-02-11T06:53:51.449Z,0.94
2023-02-11T06:58:55.800Z,1.06
2023-02-11T07:03:58.530Z,1.18
2023-02-11T07:09:02.731Z,1.36
2023-02-11T07:14:08.330Z,1.47
2023-02-11T07:19:11.217Z,1.57
2023-02-11T07:24:15.724Z,1.66
2023-02-11T07:29:18.426Z,1.78
2023-02-11T07:34:21.236Z,1.92
2023-02-11T07:39:27.399Z,2.05
2023-02-11T07:44:30.334Z,2.15
2023-02-11T07:49:33.295Z,2.26
2023-02-11T07:54:37.437Z,2.36
2023-02-11T07:59:40.213Z,2.43
2023-02-11T08:04:42.998Z,2.64
2023-02-11T08:09:47.476Z,2.71
2023-02-11T08:14:50.198Z,2.75
2023-02-11T08:19:52.985Z,2.86
2023-02-11T08:24:58.333Z,2.93
2023-02-11T08:30:02.003Z,3.02
2023-02-11T08:35:05.044Z,3.06
2023-02-11T08:40:10.380Z,3.12
2023-02-11T08:45:13.353Z,3.26
2023-02-11T08:50:16.230Z,3.27
2023-02-11T08:55:20.580Z,3.36
2023-02-11T09:00:24.045Z,3.35
2023-02-11T09:05:27.596Z,3.38
2023-02-11T09:10:31.677Z,3.39
2023-02-11T09:15:34.752Z,3.53
2023-02-11T09:20:37.571Z,3.66
2023-02-11T09:25:42.189Z,3.52
2023-02-11T09:30:45.065Z,3.68
2023-02-11T09:35:47.911Z,3.79
2023-02-11T09:40:52.312Z,3.91
2023-02-11T09:45:56.802Z,4.02
2023-02-11T09:51:04.375Z,4.02
2023-02-11T09:56:14.401Z,4.17
2023-02-11T10:01:28.775Z,4.22
2023-02-11T10:06:44.147Z,4.34
2023-02-11T10:11:58.213Z,4.40
2023-02-11T10:17:13.014Z,4.45
2023-02-11T10:22:20.930Z,4.38
2023-02-11T10:27:31.648Z,4.44
2023-02-11T10:32:40.454Z,4.43
2023-02-11T10:37:44.594Z,4.49
2023-02-11T10:42:50.935Z,4.56
2023-02-11T10:47:55.277Z,4.67
2023-02-11T10:53:14.246Z,4.62
2023-02-11T10:58:25.744Z,4.65
2023-02-11T11:03:33.169Z,4.70
2023-02-11T11:08:42.888Z,4.88
2023-02-11T11:14:00.785Z,4.90
2023-02-11T11:19:22.387Z,5.00
2023-02-11T11:24:29.529Z,4.98
2023-02-11T11:29:35.793Z,5.07
2023-02-11T11:34:42.273Z,5.07
2023-02-11T11:39:53.624Z,5.16
2023-02-11T11:45:00.348Z,5.22
2023-02-11T11:50:26.117Z,5.22
2023-02-11T11:55:34.354Z,5.15
2023-02-11T12:00:48.188Z,5.12
2023-02-11T12:06:04.576Z,5.05
2023-02-11T12:11:18.519Z,5.15
2023-02-11T12:16:34.820Z,5.17
2023-02-11T12:21:46.721Z,5.21
2023-02-11T12:26:57.586Z,5.29
2023-02-11T12:32:18.934Z,5.28
2023-02-11T12:37:37.005Z,5.28
2023-02-11T12:43:08.811Z,5.30
2023-02-11T12:48:35.719Z,5.39
2023-02-11T12:54:10.108Z,5.41
2023-02-11T12:59:19.409Z,5.43
2023-02-11T13:04:30.517Z,5.51
2023-02-11T13:09:39.771Z,5.43
2023-02-11T13:14:42.949Z,5.46
2023-02-11T13:19:52.299Z,5.57
2023-02-11T13:25:03.794Z,5.48
2023-02-11T13:30:24.424Z,5.52
2023-02-11T13:35:31.984Z,5.53
2023-02-11T13:40:37.654Z,5.48
2023-02-11T13:45:44.645Z,5.48
2023-02-11T13:50:51.992Z,5.49
2023-02-11T13:56:08.429Z,5.53
2023-02-11T14:01:11.338Z,5.50
2023-02-11T14:06:35.995Z,5.57
2023-02-11T14:11:55.423Z,5.57
2023-02-11T14:17:21.604Z,5.63
2023-02-11T14:22:29.637Z,5.64
2023-02-11T14:27:43.933Z,5.65
2023-02-11T14:33:02.759Z,5.64
2023-02-11T14:38:19.601Z,5.66
2023-02-11T14:43:28.480Z,5.61
2023-02-11T14:48:35.370Z,5.62
2023-02-11T14:53:44.936Z,5.61
2023-02-11T14:58:49.139Z,5.64
2023-02-11T15:03:51.985Z,5.65
2023-02-11T15:09:00.956Z,5.64
2023-02-11T15:14:10.181Z,5.60
2023-02-11T15:19:22.248Z,5.59
2023-02-11T15:24:29.653Z,5.56
2023-02-11T15:29:39.121Z,5.57
2023-02-11T15:34:42.069Z,5.55
2023-02-11T15:39:46.640Z,5.54
2023-02-11T15:44:56.507Z,5.50
2023-02-11T15:50:00.306Z,5.52
2023-02-11T15:55:04.741Z,5.48
2023-02-11T16:00:08.968Z,5.45
2023-02-11T16:05:30.261Z,5.42
2023-02-11T16:10:36.356Z,5.41
2023-02-11T16:15:52.433Z,5.40
2023-02-11T16:20:55.569Z,5.35
2023-02-11T16:26:05.461Z,5.33
2023-02-11T16:31:09.696Z,5.28
2023-02-11T16:36:14.887Z,5.28
2023-02-11T16:41:19.089Z,5.27
2023-02-11T16:46:21.816Z,5.22
2023-02-11T16:51:24.747Z,5.20
2023-02-11T16:56:29.004Z,5.19
2023-02-11T17:01:32.829Z,5.17
2023-02-11T17:06:36.116Z,5.17
2023-02-11T17:11:40.254Z,5.15
2023-02-11T17:16:43.454Z,5.13
2023-02-11T17:21:47.320Z,5.12
2023-02-11T17:26:51.950Z,5.10
2023-02-11T17:31:54.994Z,5.11
2023-02-11T17:36:59.624Z,5.06
2023-02-11T17:42:05.485Z,5.04
2023-02-11T17:47:08.241Z,5.03
2023-02-11T17:52:11.063Z,5.02
2023-02-11T17:57:15.204Z,5.02
2023-02-11T18:02:18.039Z,5.00
2023-02-11T18:07:20.901Z,5.00
2023-02-11T18:12:26.249Z,5.01
2023-02-11T18:17:29.227Z,4.99
2023-02-11T18:22:36.643Z,4.97
2023-02-11T18:27:40.808Z,4.97
2023-02-11T18:32:43.754Z,5.00
2023-02-11T18:37:46.607Z,4.99
2023-02-11T18:42:50.747Z,4.96
2023-02-11T18:47:53.440Z,4.98
2023-02-11T18:52:56.246Z,5.01
2023-02-11T18:58:00.426Z,5.01
2023-02-11T19:03:03.473Z,5.01
2023-02-11T19:08:06.333Z,5.01
2023-02-11T19:13:10.941Z,4.99
2023-02-11T19:18:15.931Z,5.00
2023-02-11T19:23:18.708Z,4.99
2023-02-11T19:28:23.087Z,4.98
2023-02-11T19:33:25.919Z,4.99
2023-02-11T19:38:28.819Z,5.00
2023-02-11T19:43:32.889Z,5.02
2023-02-11T19:48:35.710Z,5.01
2023-02-11T19:53:38.826Z,5.02
2023-02-11T19:58:43.774Z,5.03
2023-02-11T20:03:50.297Z,5.04
2023-02-11T20:08:56.504Z,5.04
2023-02-11T20:14:02.502Z,5.02
2023-02-11T20:19:05.195Z,5.04
2023-02-11T20:24:08.236Z,4.99
2023-02-11T20:29:12.602Z,4.99
2023-02-11T20:34:17.482Z,5.00
2023-02-11T20:39:21.815Z,4.99
2023-02-11T20:44:26.119Z,5.01
2023-02-11T20:49:29.050Z,4.97
2023-02-11T20:54:31.842Z,4.98
2023-02-11T20:59:36.028Z,4.96
2023-02-11T21:04:39.131Z,4.95
2023-02-11T21:09:42.141Z,4.96
2023-02-11T21:14:46.851Z,4.96
2023-02-11T21:19:49.536Z,4.98
2023-02-11T21:24:52.369Z,4.92
2023-02-11T21:29:56.481Z,4.93
2023-02-11T21:35:02.184Z,4.92
2023-02-11T21:40:05.598Z,4.93
2023-02-11T21:45:10.702Z,4.90
2023-02-11T21:50:13.870Z,4.90
2023-02-11T21:55:16.626Z,4.92
2023-02-11T22:00:21.610Z,4.94
2023-02-11T22:05:24.776Z,4.90
2023-02-11T22:10:27.530Z,4.92
2023-02-11T22:15:31.767Z,4.91
2023-02-11T22:20:34.501Z,4.91
2023-02-11T22:25:37.770Z,4.92
2023-02-11T22:30:41.977Z,4.92
2023-02-11T22:35:44.718Z,4.93
2023-02-11T22:40:47.455Z,4.92
2023-02-11T22:45:52.252Z,4.91
2023-02-11T22:50:55.179Z,4.90
2023-02-11T22:55:58.241Z,4.91
2023-02-11T23:01:03.021Z,4.89
2023-02-11T23:06:06.477Z,4.90
2023-02-11T23:11:12.280Z,4.88
2023-02-11T23:16:19.196Z,4.88
2023-02-11T23:21:24.093Z,4.88
2023-02-11T23:26:27.513Z,4.89
2023-02-11T23:31:34.478Z,4.88
2023-02-11T23:36:37.210Z,4.88
2023-02-11T23:41:40.007Z,4.86
2023-02-11T23:46:44.125Z,4.86
2023-02-11T23:51:46.915Z,4.85
2023-02-11T23:56:49.712Z,4.85
